Time;durP1;ratioP1;P1;durP2;ratioP2;P2;SDS_P1;SDS_P2;PMS_P1;PMS_P2;Temp;Humidity;BMP_temperature;BMP_pressure;BME280_temperature;BME280_humidity;BME280_pressure;Samples;Min_cycle;Max_cycle;Signal;HPM_P1;HPM_P2
2022/03/11 00:02:09;;;;;;;12.68;8.23;;;6.90;63.10;;;;;;4937771;28;20126;-59
2022/03/11 00:04:35;;;;;;;12.63;8.23;;;6.90;63.20;;;;;;4939910;28;20048;-60
2022/03/11 00:07:20;;;;;;;15.30;8.52;;;6.80;63.20;;;;;;4930855;28;20058;-59
2022/03/11 00:09:45;;;;;;;14.07;8.27;;;6.80;63.30;;;;;;4924259;28;20894;-60
2022/03/11 00:12:11;;;;;;;13.13;8.20;;;6.80;63.50;;;;;;4941689;28;20047;-59
2022/03/11 00:14:37;;;;;;;12.73;8.07;;;6.70;63.60;;;;;;4941100;28;20046;-59
2022/03/11 00:17:03;;;;;;;10.52;7.72;;;6.70;63.70;;;;;;4939068;28;20481;-59
2022/03/11 00:19:30;;;;;;;13.68;8.20;;;6.60;63.90;;;;;;4942951;28;20043;-59
2022/03/11 00:21:55;;;;;;;14.23;8.30;;;6.60;64.10;;;;;;4922070;28;20059;-59
2022/03/11 00:24:22;;;;;;;12.60;7.80;;;6.60;64.20;;;;;;4940604;28;20462;-59
2022/03/11 00:26:48;;;;;;;16.83;8.15;;;6.60;64.30;;;;;;4940018;28;20051;-59
2022/03/11 00:29:14;;;;;;;18.08;8.45;;;6.50;64.40;;;;;;4940223;28;20047;-57
2022/03/11 00:31:40;;;;;;;13.18;8.05;;;6.50;64.50;;;;;;4938397;28;20243;-58
2022/03/11 00:34:06;;;;;;;12.32;7.93;;;6.50;64.90;;;;;;4939535;28;20066;-59
2022/03/11 00:36:32;;;;;;;13.10;7.82;;;6.40;65.10;;;;;;4939871;28;20077;-59
2022/03/11 00:38:58;;;;;;;16.88;7.63;;;6.40;65.30;;;;;;4935866;28;20047;-61
2022/03/11 00:41:24;;;;;;;13.75;7.75;;;6.40;65.50;;;;;;4938876;28;20518;-59
2022/03/11 00:43:50;;;;;;;14.50;7.68;;;6.30;65.70;;;;;;4939633;28;20118;-59
2022/03/11 00:46:15;;;;;;;12.63;7.85;;;6.30;66.10;;;;;;4936963;28;20488;-58
2022/03/11 00:48:41;;;;;;;12.45;7.90;;;6.30;66.20;;;;;;4939369;28;20050;-59
2022/03/11 00:51:07;;;;;;;11.02;7.57;;;6.30;66.30;;;;;;4937835;28;20050;-59
2022/03/11 00:53:33;;;;;;;12.82;8.02;;;6.30;66.50;;;;;;4940439;28;20565;-60
2022/03/11 00:55:58;;;;;;;14.30;8.00;;;6.20;66.70;;;;;;4937999;28;20528;-59
2022/03/11 00:58:24;;;;;;;11.85;7.57;;;6.20;66.80;;;;;;4938909;28;20093;-57
2022/03/11 01:00:50;;;;;;;16.25;8.32;;;6.20;67.00;;;;;;4936953;28;20047;-58
2022/03/11 01:03:16;;;;;;;11.30;8.10;;;6.20;67.20;;;;;;4938299;28;20039;-59
2022/03/11 01:05:42;;;;;;;21.50;8.32;;;6.20;67.40;;;;;;4933458;28;20061;-59
2022/03/11 01:08:07;;;;;;;15.32;8.38;;;6.20;67.60;;;;;;4939060;28;20051;-59
2022/03/11 01:10:33;;;;;;;13.20;7.97;;;6.10;67.60;;;;;;4937039;28;20052;-59
2022/03/11 01:12:59;;;;;;;13.70;8.20;;;6.10;67.90;;;;;;4936839;28;20052;-59
2022/03/11 01:15:25;;;;;;;16.25;8.65;;;6.10;68.00;;;;;;4937760;28;20426;-59
2022/03/11 01:17:51;;;;;;;14.30;8.35;;;6.10;68.10;;;;;;4937303;28;20053;-58
2022/03/11 01:20:17;;;;;;;13.25;8.45;;;6.00;68.50;;;;;;4937644;28;20081;-59
2022/03/11 01:22:42;;;;;;;13.45;8.45;;;6.00;68.60;;;;;;4938558;28;20047;-59
2022/03/11 01:25:09;;;;;;;17.70;9.02;;;6.00;68.90;;;;;;4939645;28;20052;-59
2022/03/11 01:27:36;;;;;;;14.93;8.90;;;5.90;69.10;;;;;;4938915;28;20051;-58
2022/03/11 01:30:05;;;;;;;15.07;8.95;;;5.90;69.10;;;;;;4938034;28;20054;-57
2022/03/11 01:32:30;;;;;;;14.57;9.00;;;5.90;69.30;;;;;;4938129;28;20043;-58
2022/03/11 01:34:56;;;;;;;17.35;9.23;;;5.80;69.60;;;;;;4937404;28;20043;-59
2022/03/11 01:37:22;;;;;;;22.58;10.20;;;5.80;69.90;;;;;;4938859;28;20391;-58
2022/03/11 01:39:48;;;;;;;16.50;9.57;;;5.70;70.10;;;;;;4938303;28;20067;-58
2022/03/11 01:42:14;;;;;;;16.30;10.18;;;5.70;70.50;;;;;;4938442;28;20489;-59
2022/03/11 01:44:40;;;;;;;15.52;10.25;;;5.70;70.70;;;;;;4935986;28;20055;-59
2022/03/11 01:47:07;;;;;;;18.65;10.02;;;5.60;71.00;;;;;;4932396;28;20055;-59
2022/03/11 01:49:34;;;;;;;20.02;10.52;;;5.60;71.20;;;;;;4936203;28;20979;-59
2022/03/11 01:52:00;;;;;;;15.15;9.82;;;5.50;71.50;;;;;;4934833;28;20067;-59
2022/03/11 01:54:26;;;;;;;16.85;10.10;;;5.50;71.70;;;;;;4936553;28;20047;-59
2022/03/11 01:56:52;;;;;;;19.65;9.98;;;5.50;72.20;;;;;;4937653;28;20803;-58
2022/03/11 01:59:18;;;;;;;17.88;10.63;;;5.40;72.60;;;;;;4932513;28;20758;-59
2022/03/11 02:01:43;;;;;;;18.63;10.73;;;5.40;72.70;;;;;;4934382;28;20055;-59
2022/03/11 02:04:09;;;;;;;17.35;10.85;;;5.40;73.20;;;;;;4937080;28;20047;-59
2022/03/11 02:06:36;;;;;;;21.50;11.32;;;5.30;73.30;;;;;;4937074;28;20055;-59
2022/03/11 02:09:03;;;;;;;16.58;10.23;;;5.30;73.40;;;;;;4937244;28;20593;-58
2022/03/11 02:11:29;;;;;;;18.55;11.43;;;5.20;73.70;;;;;;4937303;28;20656;-58
2022/03/11 02:13:58;;;;;;;21.05;12.18;;;5.20;74.20;;;;;;4937769;28;20058;-58
2022/03/11 02:16:27;;;;;;;24.63;11.57;;;5.20;74.30;;;;;;4936081;28;20051;-58
2022/03/11 02:18:53;;;;;;;19.17;11.88;;;5.10;74.60;;;;;;4935893;28;20914;-58
2022/03/11 02:21:21;;;;;;;20.52;12.18;;;5.10;74.70;;;;;;4926994;28;20043;-58
2022/03/11 02:23:59;;;;;;;20.85;12.05;;;5.10;75.10;;;;;;4935814;28;20050;-58
2022/03/11 02:26:27;;;;;;;19.15;12.38;;;5.00;75.30;;;;;;4934694;28;20077;-59
2022/03/11 02:28:55;;;;;;;25.00;12.20;;;5.00;75.60;;;;;;4935733;28;20051;-58
2022/03/11 02:31:25;;;;;;;19.15;12.35;;;5.00;75.90;;;;;;4938348;28;20047;-58
2022/03/11 02:33:51;;;;;;;21.50;12.20;;;4.90;76.30;;;;;;4938027;28;20090;-59
2022/03/11 02:36:18;;;;;;;22.52;12.80;;;4.90;76.40;;;;;;4935046;28;20043;-59
2022/03/11 02:38:44;;;;;;;21.25;13.25;;;4.90;76.70;;;;;;4935894;28;20254;-59
2022/03/11 02:41:10;;;;;;;25.23;13.73;;;4.90;76.80;;;;;;4932624;28;20051;-58
2022/03/11 02:43:36;;;;;;;21.77;13.55;;;4.80;77.10;;;;;;4936438;28;20058;-58
2022/03/11 02:46:03;;;;;;;23.48;14.15;;;4.80;77.50;;;;;;4935410;28;20295;-57
2022/03/11 02:48:29;;;;;;;26.48;14.27;;;4.80;77.60;;;;;;4935590;28;20043;-58
2022/03/11 02:50:55;;;;;;;23.75;14.63;;;4.80;78.00;;;;;;4932879;28;20058;-58
2022/03/11 02:53:22;;;;;;;26.60;15.15;;;4.80;78.10;;;;;;4935770;28;20529;-57
2022/03/11 02:55:48;;;;;;;23.60;14.73;;;4.80;78.30;;;;;;4937162;28;20126;-58
2022/03/11 02:58:14;;;;;;;24.30;14.60;;;4.80;78.70;;;;;;4934655;28;20360;-59
2022/03/11 03:00:40;;;;;;;25.65;14.93;;;4.70;78.80;;;;;;4934971;28;20051;-58
2022/03/11 03:03:06;;;;;;;26.50;16.25;;;4.70;79.20;;;;;;4934650;28;21434;-60
2022/03/11 03:05:32;;;;;;;24.80;15.27;;;4.70;79.30;;;;;;4930914;28;20081;-58
2022/03/11 03:07:58;;;;;;;31.55;16.30;;;4.60;79.70;;;;;;4934220;28;20051;-58
2022/03/11 03:10:24;;;;;;;24.52;15.80;;;4.60;79.70;;;;;;4934762;28;20057;-59
2022/03/11 03:12:51;;;;;;;25.10;15.60;;;4.60;80.00;;;;;;4936498;28;20078;-59
2022/03/11 03:15:16;;;;;;;26.38;16.05;;;4.60;80.10;;;;;;4934019;28;20058;-58
2022/03/11 03:17:42;;;;;;;28.02;16.75;;;4.60;80.30;;;;;;4933639;28;20043;-59
2022/03/11 03:20:09;;;;;;;27.13;16.45;;;4.60;80.60;;;;;;4935955;28;20130;-59
2022/03/11 03:22:36;;;;;;;27.35;16.50;;;4.60;80.80;;;;;;4935361;28;20122;-59
2022/03/11 03:25:03;;;;;;;28.75;17.17;;;4.60;81.00;;;;;;4937265;28;20055;-59
2022/03/11 03:27:29;;;;;;;25.90;17.13;;;4.50;81.20;;;;;;4932502;28;20050;-58
2022/03/11 03:29:55;;;;;;;27.58;16.73;;;4.50;81.30;;;;;;4917968;28;20051;-58
2022/03/11 03:32:21;;;;;;;26.98;16.42;;;4.50;81.90;;;;;;4931048;28;20667;-58
2022/03/11 03:34:47;;;;;;;28.80;16.73;;;4.50;81.90;;;;;;4950824;28;20110;-59
2022/03/11 03:37:13;;;;;;;27.60;17.40;;;4.50;82.10;;;;;;4933166;28;20079;-59
2022/03/11 03:39:40;;;;;;;28.25;16.75;;;4.50;82.30;;;;;;4936567;28;20058;-59
2022/03/11 03:42:07;;;;;;;26.73;18.08;;;4.50;82.80;;;;;;4932368;28;20130;-59
2022/03/11 03:44:33;;;;;;;29.08;17.70;;;4.50;83.10;;;;;;4933897;28;20054;-59
2022/03/11 03:46:59;;;;;;;28.85;17.40;;;4.50;83.30;;;;;;4933789;28;20047;-59
2022/03/11 03:49:26;;;;;;;29.58;17.40;;;4.50;83.30;;;;;;4927449;28;20182;-58
2022/03/11 03:51:52;;;;;;;27.85;17.38;;;4.40;83.50;;;;;;4925919;28;20531;-57
2022/03/11 03:54:18;;;;;;;29.48;17.98;;;4.40;83.60;;;;;;4934425;28;20046;-58
2022/03/11 03:56:45;;;;;;;35.30;18.45;;;4.40;83.80;;;;;;4936474;28;20054;-58
2022/03/11 03:59:12;;;;;;;31.40;18.40;;;4.40;84.10;;;;;;4933395;28;20533;-59
2022/03/11 04:01:41;;;;;;;30.98;18.33;;;4.40;84.40;;;;;;4933990;28;20055;-59
2022/03/11 04:04:09;;;;;;;32.28;19.02;;;4.40;84.60;;;;;;4934062;28;20050;-59
2022/03/11 04:06:36;;;;;;;31.67;18.23;;;4.30;84.80;;;;;;4925011;28;20047;-58
2022/03/11 04:09:04;;;;;;;34.75;19.25;;;4.30;85.10;;;;;;4936455;28;21367;-58
2022/03/11 04:11:31;;;;;;;28.73;18.27;;;4.20;85.20;;;;;;4935178;28;20076;-58
2022/03/11 04:13:57;;;;;;;31.05;18.35;;;4.20;85.40;;;;;;4935670;28;20054;-59
2022/03/11 04:16:23;;;;;;;28.58;18.00;;;4.20;85.80;;;;;;4933221;28;20577;-57
2022/03/11 04:18:50;;;;;;;34.75;19.08;;;4.20;86.10;;;;;;4935582;28;20043;-58
2022/03/11 04:21:17;;;;;;;30.50;17.92;;;4.20;86.20;;;;;;4932316;28;20062;-57
2022/03/11 04:23:44;;;;;;;30.60;18.75;;;4.10;86.60;;;;;;4933147;28;20079;-58
2022/03/11 04:26:10;;;;;;;28.27;18.77;;;4.10;87.00;;;;;;4933960;28;20121;-59
2022/03/11 04:28:37;;;;;;;28.10;18.75;;;4.10;87.10;;;;;;4935402;28;20051;-59
2022/03/11 04:31:04;;;;;;;29.55;19.20;;;4.10;87.40;;;;;;4931985;28;20055;-58
2022/03/11 04:33:30;;;;;;;30.20;18.77;;;4.10;87.70;;;;;;4933596;28;20047;-59
2022/03/11 04:35:56;;;;;;;33.05;19.50;;;4.00;87.80;;;;;;4934758;28;20501;-59
2022/03/11 04:38:22;;;;;;;33.33;19.13;;;4.10;88.30;;;;;;4937484;28;20090;-59
2022/03/11 04:40:47;;;;;;;33.55;18.60;;;4.00;88.50;;;;;;4933177;28;20163;-58
2022/03/11 04:43:14;;;;;;;30.63;18.23;;;4.00;88.80;;;;;;4932094;28;20070;-59
2022/03/11 04:45:40;;;;;;;29.13;18.50;;;3.90;88.90;;;;;;4930035;28;20071;-58
2022/03/11 04:48:06;;;;;;;35.85;19.20;;;3.90;89.10;;;;;;4935071;28;20047;-59
2022/03/11 04:50:32;;;;;;;32.08;18.73;;;3.90;89.30;;;;;;4935717;28;20055;-59
2022/03/11 04:52:58;;;;;;;29.05;18.20;;;3.90;89.90;;;;;;4938774;28;20047;-59
2022/03/11 04:55:24;;;;;;;31.42;19.25;;;3.80;90.10;;;;;;4937525;28;20055;-58
2022/03/11 04:57:49;;;;;;;28.92;18.35;;;3.80;90.20;;;;;;4936573;28;20175;-58
2022/03/11 05:00:16;;;;;;;33.83;19.17;;;3.80;90.30;;;;;;4937735;28;20551;-58
2022/03/11 05:02:44;;;;;;;27.70;18.52;;;3.80;90.60;;;;;;4935783;28;20055;-58
2022/03/11 05:05:14;;;;;;;28.65;17.83;;;3.70;90.70;;;;;;4934083;28;20055;-58
2022/03/11 05:07:41;;;;;;;28.90;18.95;;;3.70;90.70;;;;;;4937119;28;20124;-58
2022/03/11 05:10:10;;;;;;;29.45;18.27;;;3.70;90.90;;;;;;4936764;28;20491;-58
2022/03/11 05:12:37;;;;;;;32.97;19.27;;;3.70;91.10;;;;;;4919876;28;20549;-59
2022/03/11 05:15:05;;;;;;;28.95;18.63;;;3.70;91.20;;;;;;4937949;28;20051;-59
2022/03/11 05:17:31;;;;;;;31.92;19.25;;;3.60;91.30;;;;;;4934133;28;20651;-58
2022/03/11 05:19:58;;;;;;;31.58;19.13;;;3.60;91.40;;;;;;4936321;28;20050;-59
2022/03/11 05:22:24;;;;;;;31.60;19.00;;;3.60;91.50;;;;;;4936195;28;20051;-57
2022/03/11 05:24:50;;;;;;;28.48;18.08;;;3.60;91.50;;;;;;4938265;28;20062;-58
2022/03/11 05:27:16;;;;;;;33.08;18.98;;;3.50;91.60;;;;;;4934280;28;20047;-59
2022/03/11 05:29:42;;;;;;;30.67;19.05;;;3.50;92.00;;;;;;4951147;28;20055;-58
2022/03/11 05:32:09;;;;;;;35.95;19.95;;;3.50;92.10;;;;;;4935282;28;20427;-58
2022/03/11 05:34:38;;;;;;;33.30;18.90;;;3.50;92.10;;;;;;4938048;28;20051;-58
2022/03/11 05:37:05;;;;;;;30.50;19.75;;;3.50;92.20;;;;;;4937634;28;20042;-57
2022/03/11 05:39:31;;;;;;;28.98;18.15;;;3.50;92.30;;;;;;4935818;28;20067;-59
2022/03/11 05:41:57;;;;;;;32.33;18.35;;;3.50;92.40;;;;;;4937249;28;20171;-59
2022/03/11 05:44:23;;;;;;;29.25;18.38;;;3.50;92.30;;;;;;4937201;28;20425;-58
2022/03/11 05:46:49;;;;;;;33.42;18.60;;;3.40;92.40;;;;;;4934316;28;20471;-59
2022/03/11 05:49:15;;;;;;;33.25;19.73;;;3.40;92.70;;;;;;4936681;28;20117;-59
2022/03/11 05:51:41;;;;;;;32.72;19.15;;;3.40;92.80;;;;;;4936637;28;20054;-59
2022/03/11 05:54:08;;;;;;;31.85;18.73;;;3.40;92.80;;;;;;4937872;28;20493;-58
2022/03/11 05:56:37;;;;;;;30.23;19.42;;;3.40;92.80;;;;;;4936811;28;20098;-59
2022/03/11 05:59:04;;;;;;;27.98;18.38;;;3.40;92.90;;;;;;4935499;28;20051;-58
2022/03/11 06:01:34;;;;;;;31.02;18.98;;;3.30;93.30;;;;;;4935678;28;20044;-58
2022/03/11 06:04:01;;;;;;;30.58;19.25;;;3.30;93.10;;;;;;4936483;28;20043;-59
2022/03/11 06:06:28;;;;;;;32.17;18.88;;;3.30;93.20;;;;;;4936056;28;20063;-59
2022/03/11 06:08:54;;;;;;;31.55;19.42;;;3.30;93.50;;;;;;4936242;28;20499;-60
2022/03/11 06:11:21;;;;;;;30.35;18.42;;;3.30;93.50;;;;;;4932784;28;20046;-59
2022/03/11 06:13:47;;;;;;;32.55;19.50;;;3.30;93.60;;;;;;4935507;28;20819;-59
2022/03/11 06:16:13;;;;;;;34.60;18.80;;;3.30;93.60;;;;;;4933675;28;20047;-59
2022/03/11 06:18:39;;;;;;;31.20;18.63;;;3.20;93.80;;;;;;4937132;28;20089;-57
2022/03/11 06:21:05;;;;;;;33.75;19.08;;;3.20;93.90;;;;;;4937210;28;20045;-58
2022/03/11 06:23:32;;;;;;;29.20;18.25;;;3.20;93.90;;;;;;4935003;28;20541;-59
2022/03/11 06:25:58;;;;;;;29.88;18.55;;;3.30;93.90;;;;;;4933989;28;20077;-58
2022/03/11 06:28:24;;;;;;;33.20;18.80;;;3.30;93.80;;;;;;4935301;28;20055;-57
2022/03/11 06:30:51;;;;;;;31.30;18.42;;;3.20;93.80;;;;;;4930195;28;20147;-58
2022/03/11 06:33:16;;;;;;;35.22;19.60;;;3.20;93.90;;;;;;4934414;28;20059;-59
2022/03/11 06:35:42;;;;;;;33.20;18.65;;;3.20;93.90;;;;;;4936051;28;20110;-58
2022/03/11 06:38:08;;;;;;;35.70;19.20;;;3.30;94.00;;;;;;4937873;28;20043;-58
2022/03/11 06:40:34;;;;;;;33.78;18.27;;;3.20;93.80;;;;;;4935563;28;20366;-58
2022/03/11 06:43:00;;;;;;;30.52;18.35;;;3.20;93.80;;;;;;4935659;28;20055;-59
2022/03/11 06:45:26;;;;;;;39.47;19.08;;;3.20;93.60;;;;;;4935821;28;20043;-59
2022/03/11 06:47:51;;;;;;;35.80;18.77;;;3.30;93.60;;;;;;4935644;28;20043;-58
2022/03/11 06:50:18;;;;;;;31.33;18.77;;;3.30;93.60;;;;;;4935539;28;20051;-58
2022/03/11 06:52:45;;;;;;;26.23;17.35;;;3.20;93.60;;;;;;4934146;28;20075;-59
2022/03/11 06:55:11;;;;;;;31.67;18.20;;;3.30;93.60;;;;;;4932565;28;20054;-58
2022/03/11 06:57:37;;;;;;;28.83;18.30;;;3.30;93.80;;;;;;4935119;28;20530;-59
2022/03/11 07:00:06;;;;;;;32.15;17.63;;;3.30;93.50;;;;;;4934966;28;20094;-58
2022/03/11 07:02:32;;;;;;;30.55;18.25;;;3.30;93.40;;;;;;4933660;28;20502;-59
2022/03/11 07:04:57;;;;;;;33.60;18.27;;;3.40;93.30;;;;;;4933673;28;20055;-58
2022/03/11 07:07:24;;;;;;;31.00;18.75;;;3.30;93.30;;;;;;4935498;28;20055;-59
2022/03/11 07:09:50;;;;;;;30.95;18.58;;;3.40;93.30;;;;;;4933212;28;20119;-58
2022/03/11 07:12:16;;;;;;;29.17;18.30;;;3.40;93.00;;;;;;4932224;28;20067;-59
2022/03/11 07:14:43;;;;;;;27.23;17.63;;;3.50;92.90;;;;;;4937107;28;20054;-58
2022/03/11 07:17:09;;;;;;;34.75;18.05;;;3.50;92.80;;;;;;4936661;28;20046;-58
2022/03/11 07:19:35;;;;;;;31.67;18.67;;;3.50;92.70;;;;;;4937319;28;20046;-59
2022/03/11 07:22:04;;;;;;;41.60;18.35;;;3.50;92.50;;;;;;4938217;28;20105;-59
2022/03/11 07:24:31;;;;;;;32.38;18.80;;;3.50;92.40;;;;;;4939069;28;20078;-58
2022/03/11 07:26:57;;;;;;;31.92;17.58;;;3.50;92.30;;;;;;4939500;28;20054;-58
2022/03/11 07:29:23;;;;;;;29.65;18.05;;;3.60;92.20;;;;;;4938480;28;20478;-59
2022/03/11 07:31:49;;;;;;;30.30;16.92;;;3.60;92.10;;;;;;4936811;28;20074;-58
2022/03/11 07:34:16;;;;;;;30.65;17.98;;;3.60;92.00;;;;;;4937613;28;20043;-59
2022/03/11 07:36:43;;;;;;;29.00;17.48;;;3.60;91.90;;;;;;4934187;28;20078;-59
2022/03/11 07:39:10;;;;;;;29.65;18.10;;;3.70;91.70;;;;;;4933706;28;20039;-58
2022/03/11 07:41:36;;;;;;;29.63;18.05;;;3.70;91.70;;;;;;4927469;28;20047;-57
2022/03/11 07:44:03;;;;;;;32.45;18.95;;;3.70;91.60;;;;;;4928495;28;20066;-59
2022/03/11 07:46:30;;;;;;;29.40;17.38;;;3.70;91.50;;;;;;4933410;28;20044;-59
2022/03/11 07:48:56;;;;;;;31.52;18.10;;;3.80;91.40;;;;;;4936289;28;20039;-57
2022/03/11 07:51:22;;;;;;;31.02;19.05;;;3.80;91.30;;;;;;4936966;28;20047;-58
2022/03/11 07:53:48;;;;;;;33.58;18.33;;;3.90;91.00;;;;;;4934890;28;20047;-59
2022/03/11 07:56:15;;;;;;;30.88;17.52;;;3.90;90.80;;;;;;4931735;28;20405;-59
2022/03/11 07:58:42;;;;;;;35.85;17.90;;;4.00;90.60;;;;;;4924300;28;20063;-59
2022/03/11 08:01:09;;;;;;;28.45;16.98;;;4.00;90.40;;;;;;4932057;28;20047;-58
2022/03/11 08:03:37;;;;;;;29.38;18.52;;;4.10;90.20;;;;;;4936477;28;20065;-59
2022/03/11 08:06:04;;;;;;;35.38;18.50;;;4.20;90.00;;;;;;4934975;28;20139;-58
2022/03/11 08:08:30;;;;;;;29.20;18.85;;;4.20;90.00;;;;;;4933762;28;20765;-59
2022/03/11 08:10:55;;;;;;;31.77;18.90;;;4.30;89.50;;;;;;4935233;28;20437;-59
2022/03/11 08:13:22;;;;;;;30.17;17.80;;;4.40;89.10;;;;;;4934202;28;20047;-59
2022/03/11 08:15:48;;;;;;;32.03;18.77;;;4.30;88.80;;;;;;4930850;28;20384;-58
2022/03/11 08:18:14;;;;;;;28.17;18.08;;;4.40;88.20;;;;;;4918815;28;20514;-58
2022/03/11 08:20:40;;;;;;;30.42;17.70;;;4.50;87.90;;;;;;4934788;28;20098;-59
2022/03/11 08:23:07;;;;;;;31.67;18.02;;;4.60;87.60;;;;;;4939835;28;20050;-58
2022/03/11 08:25:36;;;;;;;27.77;18.02;;;4.80;87.30;;;;;;4954261;28;20055;-58
2022/03/11 08:28:04;;;;;;;28.25;17.10;;;4.90;86.70;;;;;;4940106;28;20059;-59
2022/03/11 08:30:31;;;;;;;31.25;17.88;;;5.00;85.90;;;;;;4937743;28;20348;-58
2022/03/11 08:32:57;;;;;;;27.35;16.77;;;5.10;84.90;;;;;;4935348;28;20101;-58
2022/03/11 08:35:24;;;;;;;28.55;17.85;;;5.20;84.20;;;;;;4940694;28;20173;-59
2022/03/11 08:37:51;;;;;;;28.63;17.38;;;5.40;84.00;;;;;;4921910;28;20064;-59
2022/03/11 08:40:23;;;;;;;30.02;17.98;;;5.50;83.00;;;;;;4937349;28;20051;-59
2022/03/11 08:42:50;;;;;;;33.05;17.98;;;5.60;82.50;;;;;;4938426;28;20051;-58
2022/03/11 08:45:16;;;;;;;27.23;17.40;;;5.70;81.80;;;;;;4940673;28;20437;-58
2022/03/11 08:47:42;;;;;;;33.33;18.05;;;5.80;81.20;;;;;;4938948;28;20109;-59
2022/03/11 08:50:08;;;;;;;27.92;17.65;;;5.90;80.50;;;;;;4940451;28;20109;-59
2022/03/11 08:52:36;;;;;;;30.10;18.00;;;6.00;80.20;;;;;;4939513;28;21382;-58
2022/03/11 08:55:03;;;;;;;26.33;17.30;;;6.10;79.70;;;;;;4938101;28;20106;-59
2022/03/11 08:57:29;;;;;;;25.20;17.15;;;6.20;78.70;;;;;;4937378;28;20103;-58
2022/03/11 08:59:55;;;;;;;30.95;17.80;;;6.20;78.20;;;;;;4938667;28;20170;-59
2022/03/11 09:02:22;;;;;;;26.88;16.50;;;6.30;77.50;;;;;;4939951;28;20058;-59
2022/03/11 09:04:49;;;;;;;26.67;17.08;;;6.40;77.10;;;;;;4938701;28;20078;-58
2022/03/11 09:07:15;;;;;;;25.33;16.92;;;6.40;76.70;;;;;;4939303;28;20519;-59
2022/03/11 09:09:41;;;;;;;27.08;17.55;;;6.50;76.40;;;;;;4938590;28;20055;-58
2022/03/11 09:12:08;;;;;;;29.17;17.33;;;6.60;75.60;;;;;;4934213;28;20418;-58
2022/03/11 09:14:34;;;;;;;28.80;17.80;;;6.70;75.00;;;;;;4936705;28;20051;-58
2022/03/11 09:17:01;;;;;;;26.95;16.58;;;6.70;75.00;;;;;;4936737;28;20055;-59
2022/03/11 09:19:28;;;;;;;30.27;17.75;;;6.90;74.80;;;;;;4936519;28;20047;-58
2022/03/11 09:21:53;;;;;;;29.80;17.23;;;6.90;75.00;;;;;;4938096;28;20047;-59
2022/03/11 09:24:19;;;;;;;29.83;18.55;;;7.10;73.90;;;;;;4939192;28;20484;-58
2022/03/11 09:26:47;;;;;;;28.63;18.27;;;7.10;72.90;;;;;;4938968;28;20082;-59
2022/03/11 09:29:13;;;;;;;29.45;17.92;;;7.20;72.70;;;;;;4936859;28;20047;-59
2022/03/11 09:31:39;;;;;;;29.42;17.75;;;7.20;72.50;;;;;;4936307;28;20103;-57
2022/03/11 09:34:05;;;;;;;27.40;17.45;;;7.30;71.90;;;;;;4936571;28;20679;-59
2022/03/11 09:36:31;;;;;;;29.55;18.25;;;7.40;71.40;;;;;;4933680;28;20182;-57
2022/03/11 09:38:56;;;;;;;28.27;17.77;;;7.40;71.40;;;;;;4938765;28;20051;-58
2022/03/11 09:41:27;;;;;;;28.40;17.10;;;7.50;71.30;;;;;;4935447;28;20159;-59
2022/03/11 09:43:55;;;;;;;28.67;17.48;;;7.60;70.70;;;;;;4940233;28;20628;-58
2022/03/11 09:46:21;;;;;;;30.08;17.55;;;7.70;70.70;;;;;;4935838;28;20051;-59
2022/03/11 09:48:47;;;;;;;31.50;17.90;;;7.80;70.50;;;;;;4923785;28;20114;-58
2022/03/11 09:51:15;;;;;;;28.25;17.27;;;7.90;69.50;;;;;;4936003;28;20059;-59
2022/03/11 09:53:42;;;;;;;32.67;18.17;;;8.00;69.30;;;;;;4939591;28;20671;-58
2022/03/11 09:56:08;;;;;;;27.75;16.63;;;8.10;68.60;;;;;;4940189;28;20047;-59
2022/03/11 09:58:35;;;;;;;27.38;17.33;;;8.20;68.00;;;;;;4940381;28;20047;-56
2022/03/11 10:01:01;;;;;;;26.30;17.05;;;8.30;67.40;;;;;;4933903;28;20051;-57
2022/03/11 10:03:30;;;;;;;25.23;16.45;;;8.30;67.10;;;;;;4934639;28;20410;-60
2022/03/11 10:05:56;;;;;;;26.63;17.00;;;8.50;66.50;;;;;;4933036;28;20070;-58
2022/03/11 10:08:34;;;;;;;31.60;17.00;;;8.50;66.60;;;;;;4932706;28;20055;-58
2022/03/11 10:11:20;;;;;;;31.05;17.23;;;8.70;66.40;;;;;;4933098;28;20137;-60
2022/03/11 10:13:46;;;;;;;27.67;17.02;;;8.80;66.30;;;;;;4923601;28;20483;-60
2022/03/11 10:16:26;;;;;;;26.15;17.20;;;8.90;66.00;;;;;;4933010;28;20464;-58
2022/03/11 10:18:55;;;;;;;25.13;16.88;;;9.00;65.50;;;;;;4932970;28;20082;-60
2022/03/11 10:21:32;;;;;;;26.77;17.55;;;9.10;64.10;;;;;;4903192;28;20066;-59
2022/03/11 10:23:59;;;;;;;27.05;16.75;;;9.20;63.90;;;;;;4932254;28;20067;-59
2022/03/11 10:26:41;;;;;;;26.75;16.80;;;9.30;64.10;;;;;;4932701;28;20165;-59
2022/03/11 10:29:16;;;;;;;23.50;16.35;;;9.40;63.80;;;;;;4931266;28;20039;-59
2022/03/11 10:31:48;;;;;;;28.13;17.33;;;9.50;63.60;;;;;;4930605;28;20505;-59
2022/03/11 10:34:18;;;;;;;28.33;17.67;;;9.60;63.30;;;;;;4932239;28;20058;-60
2022/03/11 10:36:50;;;;;;;25.65;16.70;;;9.60;61.90;;;;;;4931087;28;20047;-58
2022/03/11 10:39:21;;;;;;;25.92;16.60;;;9.70;61.80;;;;;;4934191;28;20425;-59
2022/03/11 10:41:49;;;;;;;29.00;16.27;;;9.70;61.70;;;;;;4930678;28;20059;-59
2022/03/11 10:44:19;;;;;;;23.60;16.67;;;9.70;61.20;;;;;;4931604;28;20177;-59
2022/03/11 10:46:45;;;;;;;28.90;16.83;;;9.80;61.20;;;;;;4912866;28;20043;-60
2022/03/11 10:49:11;;;;;;;22.58;16.42;;;9.90;61.00;;;;;;4932520;28;20113;-58
2022/03/11 10:51:38;;;;;;;27.27;17.35;;;9.90;59.90;;;;;;4930108;28;20051;-59
2022/03/11 10:54:06;;;;;;;29.20;17.45;;;9.90;60.10;;;;;;4934735;28;20074;-58
2022/03/11 10:56:39;;;;;;;24.35;16.65;;;10.00;60.30;;;;;;4930394;28;20118;-59
2022/03/11 10:59:29;;;;;;;26.13;16.50;;;10.10;60.10;;;;;;4932969;28;20051;-59
2022/03/11 11:01:57;;;;;;;25.83;17.00;;;10.30;60.30;;;;;;4932033;28;20043;-59
2022/03/11 11:04:24;;;;;;;25.13;16.95;;;10.40;59.60;;;;;;4934246;28;20131;-59
2022/03/11 11:06:50;;;;;;;31.23;17.00;;;10.40;59.00;;;;;;4929185;28;20045;-59
2022/03/11 11:09:18;;;;;;;26.75;16.73;;;10.40;59.00;;;;;;4923438;28;20580;-59
2022/03/11 11:11:44;;;;;;;23.20;15.85;;;10.60;59.30;;;;;;4931415;28;20043;-59
2022/03/11 11:14:11;;;;;;;29.48;16.83;;;10.70;59.20;;;;;;4929942;28;20066;-57
2022/03/11 11:16:42;;;;;;;25.65;16.25;;;10.90;58.80;;;;;;4929337;28;20469;-59
2022/03/11 11:19:17;;;;;;;29.55;17.10;;;11.00;58.10;;;;;;4930336;28;20482;-59
2022/03/11 11:21:51;;;;;;;28.30;16.67;;;11.10;57.80;;;;;;4930647;28;20137;-59
2022/03/11 11:24:19;;;;;;;27.23;16.60;;;11.20;57.70;;;;;;4914514;28;20055;-58
2022/03/11 11:26:48;;;;;;;23.98;15.95;;;11.30;57.50;;;;;;4933664;28;20051;-60
2022/03/11 11:29:18;;;;;;;27.23;16.85;;;11.50;57.60;;;;;;4934920;28;20055;-58
2022/03/11 11:31:45;;;;;;;28.25;16.38;;;11.60;57.20;;;;;;4935066;28;20047;-59
2022/03/11 11:34:24;;;;;;;28.23;17.20;;;11.70;57.00;;;;;;4933161;28;20413;-59
2022/03/11 11:36:50;;;;;;;27.10;16.50;;;11.80;56.20;;;;;;4930181;28;20075;-59
2022/03/11 11:39:16;;;;;;;24.08;16.73;;;11.80;56.30;;;;;;4933194;28;20057;-58
2022/03/11 11:41:55;;;;;;;25.20;15.73;;;12.00;55.30;;;;;;4932652;28;20059;-59
2022/03/11 11:44:32;;;;;;;23.48;15.90;;;12.00;54.30;;;;;;4934286;28;20292;-58
2022/03/11 11:47:11;;;;;;;26.17;16.33;;;12.00;54.20;;;;;;4934431;28;20074;-59
2022/03/11 11:49:41;;;;;;;23.83;15.60;;;12.00;54.00;;;;;;4933180;28;20414;-59
2022/03/11 11:52:11;;;;;;;21.73;15.55;;;12.00;53.40;;;;;;4932535;28;20085;-59
2022/03/11 11:54:40;;;;;;;24.88;15.45;;;12.10;54.00;;;;;;4933623;28;20095;-57
2022/03/11 11:57:07;;;;;;;22.73;15.07;;;12.20;53.30;;;;;;4931130;28;20047;-58
2022/03/11 11:59:37;;;;;;;27.45;16.02;;;12.30;52.70;;;;;;4932264;28;20455;-58
2022/03/11 12:02:24;;;;;;;21.83;14.43;;;12.30;52.90;;;;;;4931337;28;21884;-59
2022/03/11 12:04:51;;;;;;;20.83;15.10;;;12.50;53.40;;;;;;4931432;28;20089;-59
2022/03/11 12:07:17;;;;;;;26.13;15.63;;;12.60;53.00;;;;;;4931039;28;20106;-58
2022/03/11 12:10:00;;;;;;;21.75;15.45;;;12.60;52.30;;;;;;4931405;28;20047;-59
2022/03/11 12:12:35;;;;;;;22.05;15.73;;;12.70;52.40;;;;;;4927100;28;20092;-60
2022/03/11 12:15:11;;;;;;;25.55;14.60;;;12.80;52.50;;;;;;4933960;28;20049;-59
2022/03/11 12:18:01;;;;;;;26.05;15.15;;;12.90;52.40;;;;;;4933043;28;20053;-59
2022/03/11 12:20:49;;;;;;;23.13;14.90;;;13.00;52.10;;;;;;4933493;28;20086;-58
2022/03/11 12:23:19;;;;;;;20.70;14.27;;;13.20;51.40;;;;;;4934205;28;20449;-59
2022/03/11 12:25:48;;;;;;;22.38;14.55;;;13.20;51.10;;;;;;4926310;28;20055;-60
2022/03/11 12:28:41;;;;;;;24.88;15.07;;;13.20;51.40;;;;;;4932282;28;20396;-58
2022/03/11 12:31:13;;;;;;;24.73;15.00;;;13.30;51.10;;;;;;4928803;28;20523;-59
2022/03/11 12:33:43;;;;;;;21.17;14.75;;;13.30;50.90;;;;;;4930010;28;20096;-59
2022/03/11 12:36:12;;;;;;;24.42;14.38;;;13.40;50.60;;;;;;4931765;28;20545;-58
2022/03/11 12:38:39;;;;;;;21.88;14.07;;;13.40;49.90;;;;;;4930946;28;20060;-59